Time;durP1;ratioP1;P1;durP2;ratioP2;P2;SDS_P1;SDS_P2;PMS_P1;PMS_P2;Temp;Humidity;BMP_temperature;BMP_pressure;BME280_temperature;BME280_humidity;BME280_pressure;Samples;Min_cycle;Max_cycle;Signal;HPM_P1;HPM_P2
2022/04/01 00:01:13;;;;;;;;;11.60;10.00;;;;;7.88;54.13;96867.13;6268483;27;96710;-68
2022/04/01 00:04:17;;;;;;;;;11.60;11.00;;;;;7.80;54.17;96864.91;6283652;27;96544;-68
2022/04/01 00:07:20;;;;;;;;;14.00;12.60;;;;;7.75;54.20;96852.25;6270245;27;97895;-69
2022/04/01 00:10:24;;;;;;;;;11.00;10.00;;;;;7.91;54.02;96844.34;6293584;27;96834;-68
2022/04/01 00:13:27;;;;;;;;;12.00;11.00;;;;;7.83;54.06;96853.66;6294493;27;97471;-69
2022/04/01 00:16:32;;;;;;;;;12.60;10.60;;;;;7.74;54.11;96842.59;6292810;27;96512;-69
2022/04/01 00:19:35;;;;;;;;;10.50;9.00;;;;;7.83;54.02;96841.06;6286238;27;97994;-69
2022/04/01 00:22:39;;;;;;;;;10.00;9.00;;;;;7.79;54.29;96852.56;6276336;27;96854;-68
2022/04/01 00:25:43;;;;;;;;;9.80;9.80;;;;;7.86;54.01;96844.31;6260606;27;96936;-68
2022/04/01 00:28:46;;;;;;;;;10.40;9.00;;;;;7.71;53.79;96816.28;6296436;27;96551;-68
2022/04/01 00:31:58;;;;;;;;;10.00;10.00;;;;;7.80;53.88;96857.66;6293665;27;96445;-69
2022/04/01 00:35:02;;;;;;;;;10.50;9.25;;;;;7.80;53.45;96854.19;6281231;27;98538;-69
2022/04/01 00:38:06;;;;;;;;;11.67;9.67;;;;;7.72;54.13;96847.38;6273144;27;97086;-68
2022/04/01 00:41:09;;;;;;;;;8.40;8.00;;;;;7.82;54.06;96846.66;6257491;27;98813;-68
2022/04/01 00:44:15;;;;;;;;;8.00;8.00;;;;;7.76;54.16;96840.47;6292850;27;97457;-69
2022/04/01 00:47:20;;;;;;;;;9.00;9.00;;;;;7.78;54.22;96842.88;6295199;27;97416;-69
2022/04/01 00:50:24;;;;;;;;;10.00;10.00;;;;;7.68;54.36;96842.78;6274458;27;96749;-70
2022/04/01 00:53:27;;;;;;;;;9.00;8.00;;;;;7.77;54.22;96852.00;6286531;27;96433;-69
2022/04/01 00:56:33;;;;;;;;;7.00;7.00;;;;;7.72;54.48;96844.69;6292848;27;97284;-70
2022/04/01 00:59:36;;;;;;;;;8.60;7.00;;;;;7.70;54.11;96843.34;6269314;27;96568;-70
2022/04/01 01:02:41;;;;;;;;;8.50;8.00;;;;;7.76;54.26;96840.47;6293182;27;96862;-69
2022/04/01 01:05:44;;;;;;;;;8.00;6.40;;;;;7.81;54.21;96837.03;6290206;27;96597;-69
2022/04/01 01:08:48;;;;;;;;;10.00;9.00;;;;;7.76;54.11;96842.34;6255495;27;99284;-69
2022/04/01 01:11:53;;;;;;;;;10.00;9.00;;;;;7.74;54.27;96852.50;6272075;27;97262;-70
2022/04/01 01:14:57;;;;;;;;;9.00;8.00;;;;;7.67;54.23;96847.31;6279612;27;96570;-69
2022/04/01 01:18:01;;;;;;;;;10.00;9.25;;;;;7.53;54.50;96827.34;6294777;27;96399;-69
2022/04/01 01:21:09;;;;;;;;;8.20;7.00;;;;;7.76;54.23;96836.97;6272851;27;99092;-69
2022/04/01 01:24:15;;;;;;;;;7.00;6.00;;;;;7.87;54.08;96836.00;6274607;27;99175;-68
2022/04/01 01:27:21;;;;;;;;;8.00;7.00;;;;;7.84;53.89;96825.78;6250904;27;99532;-69
2022/04/01 01:30:25;;;;;;;;;7.20;7.00;;;;;8.01;53.63;96826.50;6273104;27;97397;-69
2022/04/01 01:33:29;;;;;;;;;6.00;6.00;;;;;7.92;53.75;96819.94;6272941;27;96779;-69
2022/04/01 01:36:33;;;;;;;;;8.00;7.00;;;;;7.90;53.69;96824.78;6293971;27;97870;-68
2022/04/01 01:39:36;;;;;;;;;7.25;5.25;;;;;7.79;53.97;96812.31;6271484;27;96735;-69
2022/04/01 01:42:41;;;;;;;;;8.00;7.00;;;;;7.77;53.85;96812.56;6265529;27;96439;-68
2022/04/01 01:45:44;;;;;;;;;7.00;6.40;;;;;7.76;53.89;96812.84;6245102;27;100028;-69
2022/04/01 01:48:48;;;;;;;;;8.50;8.00;;;;;7.82;53.98;96807.25;6247126;27;98531;-68
2022/04/01 01:55:13;;;;;;;;;6.00;6.00;;;;;7.92;53.91;96803.84;6264566;27;97341;-70
2022/04/01 01:58:18;;;;;;;;;7.00;6.00;;;;;7.83;53.87;96800.00;6264677;27;96503;-69
2022/04/01 02:01:22;;;;;;;;;5.00;5.00;;;;;7.93;53.90;96801.97;6262552;27;96982;-69
2022/04/01 02:04:25;;;;;;;;;6.00;5.00;;;;;7.98;53.72;96802.00;6245294;27;99505;-68
2022/04/01 02:07:28;;;;;;;;;6.25;5.25;;;;;7.94;53.86;96800.91;6264733;27;97487;-70
2022/04/01 02:10:32;;;;;;;;;7.00;7.00;;;;;7.87;53.73;96793.06;6265814;27;96587;-68
2022/04/01 02:13:38;;;;;;;;;6.80;6.00;;;;;7.96;53.67;96793.44;6263422;27;97062;-69
2022/04/01 02:16:44;;;;;;;;;8.00;7.00;;;;;8.01;53.62;96794.28;6265570;27;97639;-69
2022/04/01 02:19:49;;;;;;;;;10.00;9.00;;;;;8.04;53.45;96785.72;6252996;27;98443;-71
2022/04/01 02:22:53;;;;;;;;;10.60;9.00;;;;;7.81;53.53;96754.69;6262682;27;96787;-68
2022/04/01 02:25:56;;;;;;;;;12.00;10.50;;;;;7.96;53.51;96788.88;6279063;27;97429;-69
2022/04/01 02:29:03;;;;;;;;;9.80;9.00;;;;;7.91;53.54;96788.84;6263768;27;97773;-70
2022/04/01 02:32:18;;;;;;;;;9.80;9.80;;;;;7.70;53.82;96773.63;6252471;27;96668;-69
2022/04/01 02:35:21;;;;;;;;;6.00;6.00;;;;;7.69;53.97;96786.22;6262079;27;99415;-69
2022/04/01 02:38:26;;;;;;;;;13.00;12.00;;;;;7.76;53.91;96784.16;6261525;27;97411;-69
2022/04/01 02:41:31;;;;;;;;;8.40;8.40;;;;;7.94;53.75;96788.31;6260785;27;96805;-70
2022/04/01 02:44:36;;;;;;;;;8.60;8.00;;;;;7.90;53.65;96789.91;6224262;28;98383;-70
2022/04/01 02:47:39;;;;;;;;;8.80;8.80;;;;;8.07;53.30;96787.06;6240496;27;97514;-70
2022/04/01 02:50:43;;;;;;;;;9.00;8.20;;;;;8.08;53.21;96788.69;6242978;27;98108;-70
2022/04/01 02:53:46;;;;;;;;;7.00;7.00;;;;;7.97;53.27;96779.75;6241804;27;97093;-69
2022/04/01 02:56:50;;;;;;;;;10.20;9.00;;;;;8.09;53.34;96785.75;6271682;27;96610;-70
2022/04/01 02:59:55;;;;;;;;;11.00;10.00;;;;;8.00;53.17;96781.13;6253774;27;99439;-71
2022/04/01 03:02:58;;;;;;;;;12.00;11.00;;;;;8.06;53.36;96780.09;6253169;27;97431;-69
2022/04/01 03:06:01;;;;;;;;;8.00;8.00;;;;;7.69;53.40;96750.53;6245186;27;99741;-69
2022/04/01 03:09:05;;;;;;;;;9.00;9.00;;;;;7.70;53.70;96752.97;6253489;27;96615;-69
2022/04/01 03:12:09;;;;;;;;;9.00;8.00;;;;;7.63;53.95;96765.78;6218945;28;99527;-69
2022/04/01 03:15:27;;;;;;;;;8.00;6.60;;;;;7.69;53.92;96767.44;6250231;27;97167;-70
2022/04/01 03:18:57;;;;;;;;;8.00;7.80;;;;;7.60;54.36;96776.22;6237573;28;96689;-69
2022/04/01 03:22:01;;;;;;;;;7.00;7.00;;;;;7.55;54.36;96768.13;6220388;28;98344;-68
2022/04/01 03:25:06;;;;;;;;;6.75;6.00;;;;;7.58;54.15;96746.16;6236629;28;96528;-68
2022/04/01 03:28:20;;;;;;;;;8.60;8.60;;;;;7.80;54.00;96771.84;6236793;27;96574;-69
2022/04/01 03:31:30;;;;;;;;;7.80;7.80;;;;;7.70;54.25;96774.44;6269869;27;97256;-71
2022/04/01 03:34:35;;;;;;;;;9.00;6.75;;;;;7.73;54.11;96767.75;6220136;28;99479;-69
2022/04/01 03:37:40;;;;;;;;;9.40;8.40;;;;;7.82;54.08;96780.44;6219322;28;97740;-69
2022/04/01 03:40:49;;;;;;;;;7.40;7.40;;;;;7.91;53.98;96774.63;6237006;27;96625;-68
2022/04/01 03:43:54;;;;;;;;;8.00;7.00;;;;;7.72;54.01;96771.50;6233768;27;98039;-68
2022/04/01 03:47:03;;;;;;;;;9.00;9.00;;;;;7.82;53.94;96775.06;6253249;27;98573;-69
2022/04/01 03:50:09;;;;;;;;;8.00;8.00;;;;;7.76;53.94;96776.09;6272284;27;96623;-68
2022/04/01 03:53:15;;;;;;;;;10.50;10.00;;;;;7.79;53.93;96767.53;6269494;27;96796;-68
2022/04/01 03:56:22;;;;;;;;;10.00;9.00;;;;;7.73;53.73;96751.66;6254540;27;97524;-68
2022/04/01 03:59:51;;;;;;;;;9.60;9.00;;;;;7.83;53.71;96763.28;6262008;27;99501;-69
2022/04/01 04:03:15;;;;;;;;;9.80;9.00;;;;;7.66;53.92;96764.47;6270711;27;97292;-69
2022/04/01 04:06:20;;;;;;;;;8.80;7.80;;;;;7.52;54.34;96777.50;6288550;27;97856;-68
2022/04/01 04:09:24;;;;;;;;;10.20;9.80;;;;;7.66;54.29;96776.00;6282036;27;96888;-70
2022/04/01 04:12:30;;;;;;;;;9.00;8.00;;;;;7.49;54.22;96753.84;6247896;27;97427;-69
2022/04/01 04:15:49;;;;;;;;;10.00;9.00;;;;;7.59;54.43;96779.94;6271536;27;97484;-69
2022/04/01 04:19:03;;;;;;;;;8.50;8.00;;;;;7.35;54.65;96780.25;6269396;27;96843;-69
2022/04/01 04:22:13;;;;;;;;;9.00;8.00;;;;;7.35;54.50;96764.19;6254896;27;97060;-69
2022/04/01 04:25:36;;;;;;;;;7.25;7.00;;;;;7.52;54.80;96792.75;6259863;27;98093;-70
2022/04/01 04:28:46;;;;;;;;;9.00;8.00;;;;;7.47;54.55;96790.84;6246182;27;98748;-69
2022/04/01 04:32:27;;;;;;;;;8.00;8.00;;;;;7.67;54.45;96768.78;6261144;27;98416;-69
2022/04/01 04:35:37;;;;;;;;;8.00;7.00;;;;;7.64;54.23;96769.28;6277320;27;96548;-69
2022/04/01 04:38:43;;;;;;;;;8.00;8.00;;;;;7.71;54.43;96765.31;6249478;27;98373;-68
2022/04/01 04:41:50;;;;;;;;;8.00;8.00;;;;;7.71;54.01;96775.25;6265730;27;97437;-68
2022/04/01 04:44:54;;;;;;;;;10.80;9.80;;;;;7.61;54.04;96778.66;6270691;27;96683;-69
2022/04/01 04:47:59;;;;;;;;;10.00;9.00;;;;;7.78;54.02;96791.91;6265873;27;96644;-69
2022/04/01 04:51:05;;;;;;;;;10.00;9.00;;;;;7.71;53.87;96769.88;6279850;27;97222;-68
2022/04/01 04:54:24;;;;;;;;;11.25;10.00;;;;;7.57;53.47;96734.63;6254810;27;96757;-68
2022/04/01 04:57:59;;;;;;;;;10.00;9.00;;;;;7.99;53.39;96790.22;6261460;27;98529;-70
2022/04/01 05:01:04;;;;;;;;;9.67;9.00;;;;;8.06;53.12;96791.63;6272396;27;96747;-69
2022/04/01 05:04:51;;;;;;;;;9.60;9.00;;;;;8.17;52.96;96795.19;6268965;27;96709;-70
2022/04/01 05:08:07;;;;;;;;;9.80;9.00;;;;;8.14;52.67;96796.53;6251338;27;97464;-67
2022/04/01 05:11:50;;;;;;;;;10.00;9.67;;;;;8.26;52.76;96801.69;6254248;27;98573;-67
2022/04/01 05:15:08;;;;;;;;;9.20;9.00;;;;;8.32;52.66;96802.56;6287634;27;98287;-64
2022/04/01 05:18:14;;;;;;;;;11.00;10.00;;;;;8.32;52.38;96802.56;6253597;27;99425;-65
2022/04/01 05:21:20;;;;;;;;;8.80;7.80;;;;;8.40;52.55;96813.66;6285205;27;98105;-68
2022/04/01 05:24:32;;;;;;;;;7.67;7.67;;;;;8.44;52.14;96803.22;6280986;27;96989;-68
2022/04/01 05:27:41;;;;;;;;;9.00;8.00;;;;;8.60;51.73;96819.16;6292282;27;96786;-68
2022/04/01 05:31:04;;;;;;;;;8.20;7.20;;;;;8.63;51.61;96815.16;6290353;27;96693;-67
2022/04/01 05:34:14;;;;;;;;;9.00;9.00;;;;;8.67;51.59;96816.25;6297142;27;96559;-66
2022/04/01 05:37:19;;;;;;;;;7.00;7.00;;;;;8.71;51.30;96825.38;6295401;27;97447;-66
2022/04/01 05:40:24;;;;;;;;;6.00;6.00;;;;;8.76;51.37;96824.59;6289290;27;96426;-67
2022/04/01 05:43:28;;;;;;;;;8.00;8.00;;;;;8.74;51.11;96829.44;6277236;27;96979;-70
2022/04/01 05:47:06;;;;;;;;;8.00;7.00;;;;;8.84;51.13;96830.31;6235485;27;98460;-67
2022/04/01 05:50:10;;;;;;;;;7.00;6.00;;;;;8.82;51.02;96834.31;6289518;27;96772;-66
2022/04/01 05:53:14;;;;;;;;;7.75;7.75;;;;;8.82;51.13;96826.25;6288938;27;96668;-68
2022/04/01 05:56:31;;;;;;;;;7.00;7.00;;;;;8.84;50.99;96834.88;6271535;27;97179;-68
2022/04/01 05:59:35;;;;;;;;;7.00;7.00;;;;;8.93;50.98;96827.94;6290024;27;98339;-68
2022/04/01 06:02:59;;;;;;;;;8.00;7.00;;;;;8.74;51.11;96829.44;6279486;27;96518;-70
2022/04/01 06:06:09;;;;;;;;;8.00;8.00;;;;;8.74;51.28;96832.94;6276061;27;97106;-67
2022/04/01 06:09:29;;;;;;;;;8.00;7.00;;;;;8.74;51.43;96835.63;6288831;27;97292;-68
2022/04/01 06:13:00;;;;;;;;;9.40;8.40;;;;;8.85;51.32;96836.47;6289593;27;97136;-69
2022/04/01 06:16:28;;;;;;;;;7.00;6.00;;;;;8.90;51.01;96840.00;6287950;27;97964;-67
2022/04/01 06:19:44;;;;;;;;;6.80;6.80;;;;;8.96;50.93;96833.59;6283831;27;97397;-69
2022/04/01 06:22:51;;;;;;;;;8.00;7.00;;;;;9.07;50.69;96829.91;6267270;27;97440;-69
2022/04/01 06:25:58;;;;;;;;;8.00;7.40;;;;;9.04;50.72;96837.69;6287239;27;97438;-66
2022/04/01 06:29:25;;;;;;;;;8.00;7.75;;;;;9.08;50.61;96833.41;6291098;27;96767;-66
2022/04/01 06:32:38;;;;;;;;;7.40;7.40;;;;;9.13;50.72;96834.22;6254127;27;97686;-66
2022/04/01 06:35:49;;;;;;;;;7.00;7.00;;;;;9.19;50.40;96828.88;6285909;27;97101;-66
2022/04/01 06:39:04;;;;;;;;;8.00;8.00;;;;;9.14;50.57;96826.94;6274361;27;96573;-68
2022/04/01 06:42:19;;;;;;;;;8.60;8.00;;;;;9.19;50.49;96834.25;6270409;27;97400;-67
2022/04/01 06:45:56;;;;;;;;;8.50;8.50;;;;;9.29;50.21;96834.25;6285674;27;97411;-67
2022/04/01 06:49:26;;;;;;;;;10.00;9.00;;;;;9.34;49.76;96837.78;6284567;27;97124;-70
2022/04/01 06:52:48;;;;;;;;;8.60;8.00;;;;;9.42;49.54;96845.38;6289005;27;96748;-69
2022/04/01 06:56:17;;;;;;;;;6.20;6.20;;;;;9.49;49.56;96839.72;6231711;27;96658;-69
2022/04/01 06:59:20;;;;;;;;;8.60;8.00;;;;;9.54;49.31;96837.03;6287413;27;96540;-67
2022/04/01 07:02:25;;;;;;;;;8.00;8.00;;;;;9.52;49.15;96837.34;6266564;27;96647;-67
2022/04/01 07:05:28;;;;;;;;;9.00;8.40;;;;;9.41;49.52;96830.28;6288453;27;97360;-67
2022/04/01 07:08:32;;;;;;;;;6.00;6.00;;;;;9.41;49.51;96833.00;6279858;27;96514;-67
2022/04/01 07:11:36;;;;;;;;;11.00;9.00;;;;;9.42;49.45;96829.22;6271116;27;96903;-67
2022/04/01 07:14:39;;;;;;;;;9.00;8.00;;;;;9.34;49.46;96834.28;6280603;27;98584;-67
2022/04/01 07:17:44;;;;;;;;;9.00;9.00;;;;;9.37;49.65;96845.34;6288555;27;96570;-67
2022/04/01 07:20:47;;;;;;;;;10.00;8.50;;;;;9.47;49.28;96831.94;6270027;27;98965;-68
2022/04/01 07:23:50;;;;;;;;;8.00;7.00;;;;;9.51;49.28;96827.63;6267970;27;97938;-71
2022/04/01 07:26:54;;;;;;;;;7.80;7.80;;;;;9.57;49.00;96848.09;6276800;27;97412;-67
2022/04/01 07:29:57;;;;;;;;;8.60;7.60;;;;;9.72;48.81;96836.56;6270078;27;98451;-68
2022/04/01 07:33:03;;;;;;;;;8.00;7.00;;;;;9.74;48.41;96831.72;6285496;27;96435;-71
2022/04/01 07:36:07;;;;;;;;;8.80;7.40;;;;;9.80;48.57;96837.91;6269234;27;96909;-70
2022/04/01 07:39:10;;;;;;;;;7.00;7.00;;;;;9.76;48.82;96844.91;6287924;27;96553;-70
2022/04/01 07:42:13;;;;;;;;;7.00;6.67;;;;;9.77;48.59;96844.66;6289097;27;97377;-70
2022/04/01 07:45:17;;;;;;;;;9.00;9.00;;;;;9.72;48.59;96839.28;6288373;27;96405;-71
2022/04/01 07:48:23;;;;;;;;;8.00;8.00;;;;;9.73;48.78;96840.03;6287923;27;96559;-71
2022/04/01 07:51:26;;;;;;;;;9.40;8.40;;;;;9.76;48.27;96836.84;6285406;27;98161;-68
2022/04/01 07:54:30;;;;;;;;;8.00;8.00;;;;;9.77;48.21;96846.53;6287176;27;96632;-67
2022/04/01 07:57:33;;;;;;;;;9.00;8.20;;;;;9.79;48.28;96847.06;6274496;27;98776;-68
2022/04/01 08:00:36;;;;;;;;;7.00;7.00;;;;;9.78;47.93;96848.13;6269282;27;96660;-67
2022/04/01 08:03:44;;;;;;;;;8.00;8.00;;;;;9.80;48.16;96852.19;6268395;27;99325;-68
2022/04/01 08:06:47;;;;;;;;;9.00;8.00;;;;;9.80;48.32;96851.38;6261725;27;97802;-70
2022/04/01 08:09:52;;;;;;;;;8.40;8.00;;;;;9.74;48.08;96852.44;6270193;27;98991;-71
2022/04/01 08:12:55;;;;;;;;;10.00;8.60;;;;;9.69;48.41;96850.53;6287483;27;96684;-69
2022/04/01 08:15:59;;;;;;;;;10.00;9.00;;;;;9.74;48.40;96855.94;6286817;27;96660;-71
2022/04/01 08:19:04;;;;;;;;;7.80;7.40;;;;;9.85;48.29;96854.09;6268546;27;96543;-69
2022/04/01 08:22:07;;;;;;;;;7.00;6.75;;;;;9.90;48.13;96854.09;6281108;27;96588;-69
2022/04/01 08:25:11;;;;;;;;;6.00;6.00;;;;;9.87;48.17;96860.00;6262338;27;99720;-68
2022/04/01 08:28:15;;;;;;;;;8.00;7.20;;;;;9.97;48.24;96868.91;6282286;27;96610;-67
2022/04/01 08:31:19;;;;;;;;;8.00;8.00;;;;;10.00;47.97;96871.06;6290855;27;97507;-66
2022/04/01 08:34:24;;;;;;;;;6.00;6.00;;;;;10.04;47.73;96876.72;6257602;27;98530;-67
2022/04/01 08:37:28;;;;;;;;;8.00;7.00;;;;;9.93;48.04;96857.03;6239784;27;97990;-70
2022/04/01 08:40:32;;;;;;;;;7.60;6.60;;;;;10.13;47.67;96864.34;6273098;27;96704;-70
2022/04/01 08:43:37;;;;;;;;;8.00;6.00;;;;;10.20;47.52;96861.44;6292259;27;96490;-67
2022/04/01 08:46:41;;;;;;;;;6.00;5.25;;;;;10.14;46.90;96859.78;6294455;27;96944;-68
2022/04/01 08:49:46;;;;;;;;;7.00;7.00;;;;;10.19;47.38;96860.63;6299649;27;96710;-67
2022/04/01 08:52:49;;;;;;;;;7.00;6.80;;;;;10.29;47.54;96866.00;6294223;27;96399;-71
2022/04/01 08:55:54;;;;;;;;;6.60;6.60;;;;;10.25;47.01;96867.63;6292525;27;97045;-70
2022/04/01 08:58:58;;;;;;;;;7.00;7.00;;;;;10.24;47.27;96874.09;6255572;27;99669;-70
2022/04/01 09:02:06;;;;;;;;;8.00;8.00;;;;;10.26;47.27;96871.91;6294556;27;96442;-68
2022/04/01 09:05:12;;;;;;;;;10.00;9.00;;;;;10.34;47.26;96867.91;6273769;27;98343;-70
2022/04/01 09:08:16;;;;;;;;;8.80;8.80;;;;;10.39;47.05;96873.28;6268934;27;97330;-68
2022/04/01 09:11:20;;;;;;;;;9.00;9.00;;;;;10.49;46.72;96878.66;6290608;27;97578;-67
2022/04/01 09:14:23;;;;;;;;;8.50;8.25;;;;;10.45;46.99;96874.09;6280712;27;97513;-66
2022/04/01 09:17:41;;;;;;;;;10.00;10.00;;;;;10.48;46.89;96871.66;6308459;27;97484;-68
2022/04/01 09:20:48;;;;;;;;;11.00;9.00;;;;;10.51;46.61;96868.41;6292334;27;97585;-69
2022/04/01 09:23:52;;;;;;;;;10.00;9.00;;;;;10.53;46.99;96876.25;6286254;27;97510;-70
2022/04/01 09:26:56;;;;;;;;;8.00;8.00;;;;;10.61;46.66;96870.31;6282350;27;96975;-67
2022/04/01 09:29:59;;;;;;;;;8.00;7.00;;;;;10.77;46.01;96867.31;6290265;27;97472;-71
2022/04/01 09:33:04;;;;;;;;;7.60;7.00;;;;;10.89;45.79;96875.13;6274977;27;98685;-69
2022/04/01 09:36:09;;;;;;;;;9.00;8.00;;;;;10.78;45.46;96876.22;6279306;27;97036;-68
2022/04/01 09:39:14;;;;;;;;;9.00;9.00;;;;;10.83;46.05;96874.34;6271684;27;96480;-68
2022/04/01 09:42:20;;;;;;;;;8.00;8.00;;;;;10.80;45.47;96880.25;6278285;27;98530;-67
2022/04/01 09:45:25;;;;;;;;;8.60;8.00;;;;;10.83;45.38;96873.53;6272443;27;96497;-69
2022/04/01 09:48:28;;;;;;;;;9.00;9.00;;;;;10.86;45.48;96878.34;6287937;27;97304;-71
2022/04/01 09:51:34;;;;;;;;;11.20;9.00;;;;;10.76;45.98;96886.44;6299416;27;97557;-66
2022/04/01 09:54:44;;;;;;;;;8.60;8.00;;;;;10.64;45.83;96872.47;6290624;27;96253;-66
2022/04/01 09:57:48;;;;;;;;;10.00;9.00;;;;;10.62;45.84;96874.63;6254291;27;99766;-69
2022/04/01 10:00:53;;;;;;;;;9.00;8.00;;;;;10.60;45.64;96880.28;6263818;27;97089;-68
2022/04/01 10:03:57;;;;;;;;;7.40;6.00;;;;;10.48;45.57;96879.75;6270953;27;96754;-67
2022/04/01 10:07:03;;;;;;;;;10.00;9.00;;;;;10.56;45.72;96875.69;6290023;27;97356;-69
2022/04/01 10:10:08;;;;;;;;;9.00;9.00;;;;;10.52;45.86;96880.00;6281879;27;97043;-71
2022/04/01 10:13:16;;;;;;;;;10.00;10.00;;;;;10.45;46.22;96876.78;6294240;27;97545;-70
2022/04/01 10:16:21;;;;;;;;;10.00;9.00;;;;;10.38;46.26;96880.56;6289702;27;96616;-70
2022/04/01 10:19:29;;;;;;;;;9.40;9.00;;;;;10.19;46.04;96884.03;6285056;27;98029;-66
2022/04/01 10:22:35;;;;;;;;;8.20;8.20;;;;;10.24;46.49;96889.44;6266448;27;99734;-69
2022/04/01 10:25:46;;;;;;;;;8.60;7.80;;;;;10.23;46.46;96885.94;6266717;27;97148;-71
2022/04/01 10:28:52;;;;;;;;;8.40;8.40;;;;;10.17;46.49;96888.88;6258949;27;96812;-68
2022/04/01 10:32:16;;;;;;;;;10.00;10.00;;;;;10.22;46.76;96894.25;6287721;27;96619;-66
2022/04/01 10:35:25;;;;;;;;;11.00;10.00;;;;;10.30;46.86;96896.44;6282515;27;97468;-67
2022/04/01 10:38:33;;;;;;;;;8.60;8.40;;;;;10.27;46.50;96884.31;6282772;27;98485;-68
2022/04/01 10:41:36;;;;;;;;;9.60;9.60;;;;;10.32;46.43;96892.41;6296487;27;97690;-70
2022/04/01 10:44:51;;;;;;;;;8.20;8.00;;;;;10.35;46.54;96897.25;6293528;27;97003;-67
2022/04/01 10:51:39;;;;;;;;;9.00;8.60;;;;;10.35;46.16;96896.44;6288157;27;97877;-71
2022/04/01 10:54:45;;;;;;;;;7.00;6.00;;;;;10.35;46.34;96899.97;6267984;27;98444;-68
2022/04/01 10:57:50;;;;;;;;;8.40;8.40;;;;;10.29;45.93;96887.56;6292887;27;96744;-71
2022/04/01 11:00:54;;;;;;;;;7.40;7.40;;;;;10.27;46.42;96902.34;6265371;27;98144;-68
2022/04/01 11:04:01;;;;;;;;;7.00;7.00;;;;;10.14;46.54;96898.28;6289498;27;96358;-71
2022/04/01 11:07:07;;;;;;;;;7.40;7.00;;;;;10.05;46.58;96902.56;6275949;27;98512;-71
2022/04/01 11:10:25;;;;;;;;;8.00;8.00;;;;;9.91;46.95;96888.00;6283309;27;97442;-68
2022/04/01 11:13:29;;;;;;;;;7.25;7.25;;;;;10.00;47.00;96910.63;6286002;27;96650;-66
2022/04/01 11:16:47;;;;;;;;;9.00;8.00;;;;;9.89;47.07;96903.59;6284642;27;97709;-69
2022/04/01 11:20:00;;;;;;;;;9.00;9.00;;;;;9.97;47.44;96913.84;6281842;27;97480;-67
2022/04/01 11:23:07;;;;;;;;;8.00;7.60;;;;;9.96;47.08;96912.25;6285906;27;96699;-68
2022/04/01 11:26:14;;;;;;;;;7.00;7.00;;;;;9.90;47.25;96919.50;6268883;27;96707;-67
2022/04/01 11:29:20;;;;;;;;;7.00;6.75;;;;;9.92;47.53;96924.63;6259211;27;97473;-70
2022/04/01 11:32:24;;;;;;;;;10.00;10.00;;;;;9.90;47.40;96916.81;6287014;27;96823;-69
2022/04/01 11:35:29;;;;;;;;;9.00;9.00;;;;;9.77;47.32;96922.69;6276226;27;100199;-68
2022/04/01 11:38:32;;;;;;;;;8.00;8.00;;;;;9.92;47.61;96921.94;6254207;27;98507;-67
2022/04/01 11:41:48;;;;;;;;;9.20;8.20;;;;;9.96;47.83;96920.31;6285897;27;96546;-66
2022/04/01 11:44:58;;;;;;;;;9.40;9.40;;;;;10.05;47.58;96921.41;6246407;27;96743;-67
2022/04/01 11:48:14;;;;;;;;;8.00;8.00;;;;;10.07;47.33;96934.63;6285972;27;97405;-69
2022/04/01 11:51:20;;;;;;;;;9.40;8.00;;;;;10.17;47.12;96927.38;6249135;27;97937;-67
2022/04/01 11:54:23;;;;;;;;;7.00;7.00;;;;;10.29;46.84;96932.53;6265761;27;97183;-66
2022/04/01 11:57:29;;;;;;;;;6.00;6.00;;;;;10.24;46.96;96930.63;6285434;27;96914;-69
2022/04/01 12:00:33;;;;;;;;;6.20;6.20;;;;;10.40;46.75;96934.16;6244404;27;96822;-66
2022/04/01 12:03:36;;;;;;;;;7.00;6.60;;;;;10.37;46.57;96929.28;6287246;27;97486;-67
2022/04/01 12:10:04;;;;;;;;;9.40;8.40;;;;;10.46;46.52;96930.38;6285040;27;97096;-66
2022/04/01 12:13:11;;;;;;;;;8.40;7.00;;;;;10.46;46.39;96925.00;6258273;27;98220;-66
2022/04/01 12:16:14;;;;;;;;;9.00;7.00;;;;;10.48;46.40;96920.16;6264701;27;97967;-66
2022/04/01 12:19:20;;;;;;;;;6.60;6.00;;;;;10.35;46.70;96926.88;6285209;27;97116;-70
2022/04/01 12:22:24;;;;;;;;;8.00;8.00;;;;;10.35;46.75;96929.59;6287093;27;97475;-68
2022/04/01 12:25:30;;;;;;;;;7.00;6.80;;;;;10.35;46.74;96924.19;6237677;27;99654;-65
2022/04/01 12:28:39;;;;;;;;;7.60;6.00;;;;;10.47;46.78;96936.56;6281883;27;96853;-65
2022/04/01 12:31:50;;;;;;;;;8.25;6.25;;;;;10.55;46.34;96922.59;6265584;27;98594;-66
2022/04/01 12:34:53;;;;;;;;;6.25;6.25;;;;;10.66;46.26;96925.00;6261681;27;97081;-68
2022/04/01 12:38:04;;;;;;;;;7.00;7.00;;;;;10.70;45.53;96934.16;6284142;27;96858;-71
2022/04/01 12:41:14;;;;;;;;;5.40;5.00;;;;;10.73;45.71;96930.94;6281952;27;98548;-67
2022/04/01 12:44:24;;;;;;;;;5.60;5.60;;;;;10.84;45.61;96931.75;6284525;27;96563;-66
2022/04/01 12:47:30;;;;;;;;;5.00;5.00;;;;;10.80;45.17;96931.47;6285384;27;97419;-67
2022/04/01 12:50:34;;;;;;;;;5.60;5.00;;;;;10.80;45.59;96930.66;6277623;27;97767;-66
2022/04/01 12:53:38;;;;;;;;;7.00;6.00;;;;;10.85;44.84;96931.44;6253899;27;96624;-68
2022/04/01 12:56:45;;;;;;;;;7.00;7.00;;;;;10.83;45.15;96938.22;6286430;27;98346;-69
2022/04/01 12:59:51;;;;;;;;;7.00;7.00;;;;;10.82;45.38;96931.19;6274316;27;97091;-65
2022/04/01 13:03:01;;;;;;;;;7.00;7.00;;;;;10.77;45.32;96929.31;6285775;27;97912;-67
2022/04/01 13:06:11;;;;;;;;;4.40;3.00;;;;;10.77;45.72;96932.00;6264787;27;97005;-67
2022/04/01 13:09:14;;;;;;;;;7.00;6.00;;;;;10.73;45.50;96930.13;6265203;27;97510;-68
2022/04/01 13:12:19;;;;;;;;;6.00;5.00;;;;;10.65;45.70;96933.38;6278861;27;96637;-69
2022/04/01 13:15:27;;;;;;;;;6.40;6.40;;;;;10.46;45.98;96921.50;6284115;27;97490;-67
2022/04/01 13:18:32;;;;;;;;;6.00;6.00;;;;;10.55;45.91;96944.16;6269868;27;97575;-68
2022/04/01 13:21:35;;;;;;;;;8.00;8.00;;;;;10.49;46.08;96947.91;6285592;27;96695;-67
2022/04/01 13:24:40;;;;;;;;;8.00;8.00;;;;;10.46;46.43;96946.53;6286081;27;96968;-68
2022/04/01 13:27:46;;;;;;;;;8.00;8.00;;;;;10.42;45.92;96940.06;6269396;27;98035;-68
2022/04/01 13:30:50;;;;;;;;;6.50;5.50;;;;;10.53;45.69;96949.78;6286277;27;96643;-68
2022/04/01 13:33:54;;;;;;;;;5.00;5.00;;;;;10.63;45.47;96957.06;6287239;27;97503;-69
2022/04/01 13:36:57;;;;;;;;;6.00;6.00;;;;;10.68;45.75;96951.69;6282466;27;99137;-68
2022/04/01 13:40:01;;;;;;;;;7.20;6.00;;;;;10.69;45.55;96946.03;6249500;27;97124;-69
2022/04/01 13:43:05;;;;;;;;;7.00;7.00;;;;;10.68;45.90;96941.72;6268479;27;98413;-68
2022/04/01 13:46:15;;;;;;;;;10.00;8.00;;;;;10.65;45.63;96954.94;6279648;27;97360;-70
2022/04/01 13:49:19;;;;;;;;;8.40;8.00;;;;;10.64;45.51;96953.31;6283648;27;97924;-66
2022/04/01 13:52:22;;;;;;;;;8.00;7.20;;;;;10.37;45.42;96948.16;6283002;27;96909;-67
2022/04/01 13:55:25;;;;;;;;;7.75;7.75;;;;;10.29;45.30;96946.81;6272095;27;97508;-67
2022/04/01 13:58:35;;;;;;;;;10.25;10.00;;;;;10.23;45.41;96937.09;6283202;27;97344;-67
2022/04/01 14:01:40;;;;;;;;;10.00;9.00;;;;;10.38;45.69;96945.19;6271771;27;97878;-67
2022/04/01 14:04:43;;;;;;;;;7.00;7.00;;;;;10.36;45.95;96952.72;6278504;27;97009;-69
2022/04/01 14:07:49;;;;;;;;;8.60;8.00;;;;;10.35;46.15;96953.81;6287657;27;98835;-70
2022/04/01 14:10:53;;;;;;;;;9.00;9.00;;;;;10.30;46.29;96956.50;6278161;27;96769;-69
2022/04/01 14:13:56;;;;;;;;;8.40;8.40;;;;;10.26;46.21;96960.78;6259793;27;97230;-70
2022/04/01 14:17:02;;;;;;;;;8.60;7.60;;;;;10.24;46.45;96957.56;6271828;27;97945;-70
2022/04/01 14:20:07;;;;;;;;;8.00;7.60;;;;;10.18;46.31;96960.50;6285673;27;97529;-68
2022/04/01 14:23:10;;;;;;;;;7.20;7.20;;;;;10.13;46.59;96957.75;6290352;27;98009;-68
2022/04/01 14:26:14;;;;;;;;;7.75;7.75;;;;;10.00;46.82;96964.47;6289929;27;96867;-70
2022/04/01 14:32:39;;;;;;;;;6.80;6.00;;;;;9.98;46.33;96967.41;6270216;27;98388;-67
2022/04/01 14:35:43;;;;;;;;;7.00;6.60;;;;;10.03;46.50;96977.38;6288231;27;97785;-70
2022/04/01 14:38:47;;;;;;;;;11.00;9.20;;;;;10.02;46.71;96976.56;6285767;27;97447;-69
2022/04/01 14:41:51;;;;;;;;;7.60;7.00;;;;;10.06;46.59;96976.88;6274478;27;98040;-70
2022/04/01 14:44:57;;;;;;;;;9.40;8.00;;;;;10.09;46.91;96987.09;6290949;27;96574;-67
2022/04/01 14:48:01;;;;;;;;;8.00;7.00;;;;;9.90;46.64;96964.44;6259658;27;98543;-67
2022/04/01 14:51:05;;;;;;;;;8.00;7.20;;;;;10.05;46.90;96985.22;6290590;27;96509;-70
2022/04/01 14:54:08;;;;;;;;;7.00;7.00;;;;;10.03;47.06;96985.47;6289572;27;97345;-69
2022/04/01 14:57:12;;;;;;;;;8.50;7.50;;;;;10.01;47.20;96982.25;6288984;27;96720;-67
2022/04/01 15:00:17;;;;;;;;;7.00;7.00;;;;;10.04;47.06;96980.91;6251146;27;98582;-67